KFFZ

Falcon Field Airport

Mesa, Arizona, USA
METAR KFFZ 162147Z 29008G15KT 30SM SCT090 BKN150 38/17 A2986
Observed Flight Rules
Jul-16 @ 21:47 UTC (28 minutes ago) Visual Flight Rules
Wind Visibility Clouds
290° at 8 knots
 Gusting to 15 knots
30 miles
  • Scattered at 9,000' AGL
  • Broken at 15,000' AGL
Temperatures Readings
Current 38°C / 100°F
Dewpoint 17°C / 63°F
Humidity 29%
Altimeter 29.86" Hg
Pressure 1011 hPa
Elevation 424
METAR KFFZ 162147Z 29008G15KT 30SM SCT090 BKN150 38/17 A2986
Observed Flight Rules
Jul-16 @ 21:47 UTC
(28 minutes ago)
VFR
Wind Visibility
290° at 8 knots
 Gusting to 15 knots
30 miles
Clouds
  • Scattered at 9,000' AGL
  • Broken at 15,000' AGL
Temperature Dewpoint
38°C / 100°F 17°C / 63°F
Humidity Altimeter Pressure
29% 29.86" Hg 1011 hPa